sensor_id;sensor_type;location;lat;lon;timestamp;P1;durP1;ratioP1;P2;durP2;ratioP2
9422;SDS011;65863;49.506;10.400;2023-04-16T00:00:32;5.57;;;5.07;;
9422;SDS011;65863;49.506;10.400;2023-04-16T00:03:16;5.57;;;5.07;;
9422;SDS011;65863;49.506;10.400;2023-04-16T00:06:00;5.70;;;5.20;;
9422;SDS011;65863;49.506;10.400;2023-04-16T00:08:44;5.40;;;4.97;;
9422;SDS011;65863;49.506;10.400;2023-04-16T00:11:29;5.27;;;4.77;;
9422;SDS011;65863;49.506;10.400;2023-04-16T00:14:13;5.50;;;5.00;;
9422;SDS011;65863;49.506;10.400;2023-04-16T00:16:57;5.43;;;4.93;;
9422;SDS011;65863;49.506;10.400;2023-04-16T00:19:42;5.37;;;4.93;;
9422;SDS011;65863;49.506;10.400;2023-04-16T00:22:26;5.70;;;5.10;;
9422;SDS011;65863;49.506;10.400;2023-04-16T00:25:11;4.73;;;4.33;;
9422;SDS011;65863;49.506;10.400;2023-04-16T00:27:56;4.80;;;4.40;;
9422;SDS011;65863;49.506;10.400;2023-04-16T00:30:40;4.67;;;4.27;;
9422;SDS011;65863;49.506;10.400;2023-04-16T00:33:24;4.70;;;4.30;;
9422;SDS011;65863;49.506;10.400;2023-04-16T00:36:08;5.03;;;4.63;;
9422;SDS011;65863;49.506;10.400;2023-04-16T00:38:52;4.50;;;4.10;;
9422;SDS011;65863;49.506;10.400;2023-04-16T00:41:37;5.97;;;4.83;;
9422;SDS011;65863;49.506;10.400;2023-04-16T00:44:21;5.67;;;5.07;;
9422;SDS011;65863;49.506;10.400;2023-04-16T00:47:05;5.33;;;4.83;;
9422;SDS011;65863;49.506;10.400;2023-04-16T00:49:50;5.20;;;4.80;;
9422;SDS011;65863;49.506;10.400;2023-04-16T00:52:34;5.23;;;4.77;;
9422;SDS011;65863;49.506;10.400;2023-04-16T00:55:18;4.53;;;4.13;;
9422;SDS011;65863;49.506;10.400;2023-04-16T00:58:03;4.70;;;4.30;;
9422;SDS011;65863;49.506;10.400;2023-04-16T01:00:47;5.10;;;4.70;;
9422;SDS011;65863;49.506;10.400;2023-04-16T01:03:36;4.80;;;4.30;;
9422;SDS011;65863;49.506;10.400;2023-04-16T01:06:22;4.43;;;4.03;;
9422;SDS011;65863;49.506;10.400;2023-04-16T01:09:06;4.70;;;4.20;;
9422;SDS011;65863;49.506;10.400;2023-04-16T01:11:50;4.57;;;4.13;;
9422;SDS011;65863;49.506;10.400;2023-04-16T01:14:34;4.10;;;3.53;;
9422;SDS011;65863;49.506;10.400;2023-04-16T01:17:19;3.33;;;3.13;;
9422;SDS011;65863;49.506;10.400;2023-04-16T01:20:03;3.83;;;3.23;;
9422;SDS011;65863;49.506;10.400;2023-04-16T01:22:48;3.80;;;3.50;;
9422;SDS011;65863;49.506;10.400;2023-04-16T01:25:32;4.40;;;4.00;;
9422;SDS011;65863;49.506;10.400;2023-04-16T01:28:16;3.73;;;3.43;;
9422;SDS011;65863;49.506;10.400;2023-04-16T01:31:00;4.20;;;3.80;;
9422;SDS011;65863;49.506;10.400;2023-04-16T01:34:11;4.20;;;3.80;;
9422;SDS011;65863;49.506;10.400;2023-04-16T01:36:55;3.90;;;3.60;;
9422;SDS011;65863;49.506;10.400;2023-04-16T01:39:39;4.83;;;4.33;;
9422;SDS011;65863;49.506;10.400;2023-04-16T01:42:25;4.10;;;3.80;;
9422;SDS011;65863;49.506;10.400;2023-04-16T01:45:09;4.50;;;4.10;;
9422;SDS011;65863;49.506;10.400;2023-04-16T01:47:53;5.27;;;4.53;;
9422;SDS011;65863;49.506;10.400;2023-04-16T01:50:37;4.97;;;4.47;;
9422;SDS011;65863;49.506;10.400;2023-04-16T01:53:21;4.73;;;4.30;;
9422;SDS011;65863;49.506;10.400;2023-04-16T01:56:06;4.53;;;3.53;;
9422;SDS011;65863;49.506;10.400;2023-04-16T01:58:50;4.30;;;3.90;;
9422;SDS011;65863;49.506;10.400;2023-04-16T02:01:36;4.13;;;3.73;;
9422;SDS011;65863;49.506;10.400;2023-04-16T02:04:20;3.93;;;3.63;;
9422;SDS011;65863;49.506;10.400;2023-04-16T02:07:06;3.97;;;3.57;;
9422;SDS011;65863;49.506;10.400;2023-04-16T02:09:52;4.40;;;3.83;;
9422;SDS011;65863;49.506;10.400;2023-04-16T02:12:36;4.20;;;3.67;;
9422;SDS011;65863;49.506;10.400;2023-04-16T02:15:20;4.17;;;3.50;;
9422;SDS011;65863;49.506;10.400;2023-04-16T02:18:05;4.43;;;3.90;;
9422;SDS011;65863;49.506;10.400;2023-04-16T02:20:50;3.80;;;3.30;;
9422;SDS011;65863;49.506;10.400;2023-04-16T02:23:35;5.97;;;3.50;;
9422;SDS011;65863;49.506;10.400;2023-04-16T02:26:19;4.17;;;3.77;;
9422;SDS011;65863;49.506;10.400;2023-04-16T02:29:05;3.67;;;3.37;;
9422;SDS011;65863;49.506;10.400;2023-04-16T02:31:56;4.63;;;3.70;;
9422;SDS011;65863;49.506;10.400;2023-04-16T02:34:42;4.50;;;3.80;;
9422;SDS011;65863;49.506;10.400;2023-04-16T02:37:27;3.50;;;3.20;;
9422;SDS011;65863;49.506;10.400;2023-04-16T02:40:22;4.20;;;3.70;;
9422;SDS011;65863;49.506;10.400;2023-04-16T02:43:07;3.47;;;3.17;;
9422;SDS011;65863;49.506;10.400;2023-04-16T02:45:51;3.87;;;3.53;;
9422;SDS011;65863;49.506;10.400;2023-04-16T02:48:35;4.07;;;3.67;;
9422;SDS011;65863;49.506;10.400;2023-04-16T02:51:19;4.40;;;3.80;;
9422;SDS011;65863;49.506;10.400;2023-04-16T02:54:03;10.57;;;3.73;;
9422;SDS011;65863;49.506;10.400;2023-04-16T02:56:48;4.60;;;3.47;;
9422;SDS011;65863;49.506;10.400;2023-04-16T02:59:32;4.23;;;3.73;;
9422;SDS011;65863;49.506;10.400;2023-04-16T03:02:16;4.90;;;3.77;;
9422;SDS011;65863;49.506;10.400;2023-04-16T03:05:01;4.23;;;3.57;;
9422;SDS011;65863;49.506;10.400;2023-04-16T03:07:45;3.53;;;3.13;;
9422;SDS011;65863;49.506;10.400;2023-04-16T03:10:30;4.70;;;3.47;;
9422;SDS011;65863;49.506;10.400;2023-04-16T03:13:13;3.70;;;3.30;;
9422;SDS011;65863;49.506;10.400;2023-04-16T03:15:58;4.63;;;3.80;;
9422;SDS011;65863;49.506;10.400;2023-04-16T03:18:42;5.60;;;3.90;;
9422;SDS011;65863;49.506;10.400;2023-04-16T03:21:26;4.00;;;3.60;;
9422;SDS011;65863;49.506;10.400;2023-04-16T03:24:10;5.13;;;4.30;;
9422;SDS011;65863;49.506;10.400;2023-04-16T03:26:56;5.77;;;4.50;;
9422;SDS011;65863;49.506;10.400;2023-04-16T03:29:41;9.30;;;4.80;;
9422;SDS011;65863;49.506;10.400;2023-04-16T03:32:26;5.60;;;5.00;;
9422;SDS011;65863;49.506;10.400;2023-04-16T03:35:10;6.50;;;5.53;;
9422;SDS011;65863;49.506;10.400;2023-04-16T03:37:55;9.47;;;6.43;;
9422;SDS011;65863;49.506;10.400;2023-04-16T03:40:39;8.77;;;7.30;;
9422;SDS011;65863;49.506;10.400;2023-04-16T03:43:23;11.37;;;8.37;;
9422;SDS011;65863;49.506;10.400;2023-04-16T03:46:08;11.80;;;8.30;;
9422;SDS011;65863;49.506;10.400;2023-04-16T03:48:52;10.33;;;7.83;;
9422;SDS011;65863;49.506;10.400;2023-04-16T03:51:36;9.97;;;8.47;;
9422;SDS011;65863;49.506;10.400;2023-04-16T03:54:21;11.23;;;8.47;;
9422;SDS011;65863;49.506;10.400;2023-04-16T03:57:09;9.87;;;7.77;;
9422;SDS011;65863;49.506;10.400;2023-04-16T03:59:54;10.47;;;8.10;;
9422;SDS011;65863;49.506;10.400;2023-04-16T04:02:39;11.93;;;9.37;;
9422;SDS011;65863;49.506;10.400;2023-04-16T04:05:23;12.37;;;9.53;;
9422;SDS011;65863;49.506;10.400;2023-04-16T04:08:07;11.00;;;8.97;;
9422;SDS011;65863;49.506;10.400;2023-04-16T04:10:51;12.27;;;9.77;;
9422;SDS011;65863;49.506;10.400;2023-04-16T04:13:37;12.00;;;10.13;;
9422;SDS011;65863;49.506;10.400;2023-04-16T04:16:22;12.70;;;10.90;;
9422;SDS011;65863;49.506;10.400;2023-04-16T04:19:06;16.97;;;12.27;;
9422;SDS011;65863;49.506;10.400;2023-04-16T04:21:50;14.53;;;11.63;;
9422;SDS011;65863;49.506;10.400;2023-04-16T04:24:34;18.80;;;12.63;;
9422;SDS011;65863;49.506;10.400;2023-04-16T04:27:18;19.70;;;13.23;;
9422;SDS011;65863;49.506;10.400;2023-04-16T04:30:03;17.07;;;13.27;;
9422;SDS011;65863;49.506;10.400;2023-04-16T04:32:48;17.93;;;13.33;;
9422;SDS011;65863;49.506;10.400;2023-04-16T04:35:33;18.10;;;13.43;;
9422;SDS011;65863;49.506;10.400;2023-04-16T04:38:18;18.57;;;13.57;;
9422;SDS011;65863;49.506;10.400;2023-04-16T04:41:06;20.67;;;14.27;;
9422;SDS011;65863;49.506;10.400;2023-04-16T04:43:53;16.87;;;13.03;;
9422;SDS011;65863;49.506;10.400;2023-04-16T04:46:38;17.80;;;13.23;;
9422;SDS011;65863;49.506;10.400;2023-04-16T04:49:24;17.80;;;14.30;;
9422;SDS011;65863;49.506;10.400;2023-04-16T04:52:08;19.17;;;14.77;;
9422;SDS011;65863;49.506;10.400;2023-04-16T04:54:52;21.20;;;15.20;;
9422;SDS011;65863;49.506;10.400;2023-04-16T04:57:37;20.90;;;15.17;;
9422;SDS011;65863;49.506;10.400;2023-04-16T05:00:21;18.67;;;14.40;;
9422;SDS011;65863;49.506;10.400;2023-04-16T05:03:10;19.00;;;14.60;;
9422;SDS011;65863;49.506;10.400;2023-04-16T05:05:54;18.43;;;14.00;;
9422;SDS011;65863;49.506;10.400;2023-04-16T05:08:38;21.13;;;14.97;;
9422;SDS011;65863;49.506;10.400;2023-04-16T05:11:23;21.53;;;16.07;;
9422;SDS011;65863;49.506;10.400;2023-04-16T05:14:07;19.73;;;14.70;;
9422;SDS011;65863;49.506;10.400;2023-04-16T05:16:51;18.10;;;13.63;;
9422;SDS011;65863;49.506;10.400;2023-04-16T05:19:35;20.37;;;15.23;;
9422;SDS011;65863;49.506;10.400;2023-04-16T05:22:19;17.53;;;14.63;;
9422;SDS011;65863;49.506;10.400;2023-04-16T05:25:03;20.70;;;14.83;;
9422;SDS011;65863;49.506;10.400;2023-04-16T05:27:48;19.67;;;14.50;;
9422;SDS011;65863;49.506;10.400;2023-04-16T05:30:32;19.50;;;14.37;;
9422;SDS011;65863;49.506;10.400;2023-04-16T05:33:16;19.33;;;14.27;;
9422;SDS011;65863;49.506;10.400;2023-04-16T05:36:00;19.67;;;13.67;;
9422;SDS011;65863;49.506;10.400;2023-04-16T05:38:43;18.97;;;14.37;;
9422;SDS011;65863;49.506;10.400;2023-04-16T05:41:27;20.63;;;15.10;;
9422;SDS011;65863;49.506;10.400;2023-04-16T05:44:11;18.10;;;14.03;;
9422;SDS011;65863;49.506;10.400;2023-04-16T05:46:55;19.73;;;15.00;;
9422;SDS011;65863;49.506;10.400;2023-04-16T05:49:39;19.63;;;13.07;;
9422;SDS011;65863;49.506;10.400;2023-04-16T05:52:23;18.33;;;14.37;;
9422;SDS011;65863;49.506;10.400;2023-04-16T05:55:07;20.87;;;14.27;;
9422;SDS011;65863;49.506;10.400;2023-04-16T05:57:52;19.20;;;14.50;;
9422;SDS011;65863;49.506;10.400;2023-04-16T06:00:36;20.37;;;14.73;;
9422;SDS011;65863;49.506;10.400;2023-04-16T06:03:19;21.33;;;14.33;;
9422;SDS011;65863;49.506;10.400;2023-04-16T06:06:04;21.47;;;15.87;;
9422;SDS011;65863;49.506;10.400;2023-04-16T06:08:48;19.47;;;15.20;;
9422;SDS011;65863;49.506;10.400;2023-04-16T06:11:32;19.30;;;14.13;;
9422;SDS011;65863;49.506;10.400;2023-04-16T06:14:16;20.30;;;15.53;;
9422;SDS011;65863;49.506;10.400;2023-04-16T06:16:59;18.70;;;15.47;;
9422;SDS011;65863;49.506;10.400;2023-04-16T06:19:43;19.37;;;15.07;;
9422;SDS011;65863;49.506;10.400;2023-04-16T06:22:27;20.33;;;14.63;;
9422;SDS011;65863;49.506;10.400;2023-04-16T06:25:12;21.27;;;15.20;;
9422;SDS011;65863;49.506;10.400;2023-04-16T06:27:56;18.83;;;14.03;;
9422;SDS011;65863;49.506;10.400;2023-04-16T06:30:40;19.67;;;14.73;;
9422;SDS011;65863;49.506;10.400;2023-04-16T06:33:24;19.90;;;14.83;;
9422;SDS011;65863;49.506;10.400;2023-04-16T06:36:08;20.30;;;13.60;;
9422;SDS011;65863;49.506;10.400;2023-04-16T06:38:52;18.93;;;13.27;;
9422;SDS011;65863;49.506;10.400;2023-04-16T06:41:36;18.57;;;13.77;;
9422;SDS011;65863;49.506;10.400;2023-04-16T06:44:20;17.77;;;14.07;;
9422;SDS011;65863;49.506;10.400;2023-04-16T06:47:04;18.93;;;14.90;;
9422;SDS011;65863;49.506;10.400;2023-04-16T06:49:48;18.00;;;13.93;;
9422;SDS011;65863;49.506;10.400;2023-04-16T06:52:32;24.40;;;15.30;;
9422;SDS011;65863;49.506;10.400;2023-04-16T06:55:16;18.97;;;15.37;;
9422;SDS011;65863;49.506;10.400;2023-04-16T06:57:59;20.20;;;15.50;;
9422;SDS011;65863;49.506;10.400;2023-04-16T07:00:43;22.17;;;15.33;;
9422;SDS011;65863;49.506;10.400;2023-04-16T07:03:28;18.90;;;14.60;;
9422;SDS011;65863;49.506;10.400;2023-04-16T07:06:12;18.40;;;14.20;;
9422;SDS011;65863;49.506;10.400;2023-04-16T07:08:56;18.93;;;14.87;;
9422;SDS011;65863;49.506;10.400;2023-04-16T07:11:40;18.90;;;13.77;;
9422;SDS011;65863;49.506;10.400;2023-04-16T07:14:24;21.07;;;14.93;;
9422;SDS011;65863;49.506;10.400;2023-04-16T07:17:08;17.23;;;14.27;;
9422;SDS011;65863;49.506;10.400;2023-04-16T07:19:52;18.00;;;13.63;;
9422;SDS011;65863;49.506;10.400;2023-04-16T07:22:36;17.90;;;14.60;;
9422;SDS011;65863;49.506;10.400;2023-04-16T07:25:20;18.57;;;13.90;;
9422;SDS011;65863;49.506;10.400;2023-04-16T07:28:04;16.27;;;13.90;;
9422;SDS011;65863;49.506;10.400;2023-04-16T07:30:48;17.67;;;14.13;;
9422;SDS011;65863;49.506;10.400;2023-04-16T07:33:32;16.23;;;13.17;;
9422;SDS011;65863;49.506;10.400;2023-04-16T07:36:16;15.97;;;13.30;;
9422;SDS011;65863;49.506;10.400;2023-04-16T07:39:00;15.40;;;11.60;;
9422;SDS011;65863;49.506;10.400;2023-04-16T07:41:44;13.43;;;12.03;;
9422;SDS011;65863;49.506;10.400;2023-04-16T07:44:28;15.50;;;12.10;;
9422;SDS011;65863;49.506;10.400;2023-04-16T07:47:12;14.90;;;12.43;;
9422;SDS011;65863;49.506;10.400;2023-04-16T07:49:56;13.63;;;11.43;;
9422;SDS011;65863;49.506;10.400;2023-04-16T07:52:41;14.17;;;11.97;;
9422;SDS011;65863;49.506;10.400;2023-04-16T07:55:28;13.50;;;11.60;;
9422;SDS011;65863;49.506;10.400;2023-04-16T07:58:11;13.73;;;11.47;;
9422;SDS011;65863;49.506;10.400;2023-04-16T08:00:55;12.43;;;10.73;;
9422;SDS011;65863;49.506;10.400;2023-04-16T08:03:41;13.70;;;11.53;;
9422;SDS011;65863;49.506;10.400;2023-04-16T08:06:25;13.20;;;10.50;;
9422;SDS011;65863;49.506;10.400;2023-04-16T08:09:09;13.03;;;11.00;;
9422;SDS011;65863;49.506;10.400;2023-04-16T08:11:53;14.03;;;11.10;;
9422;SDS011;65863;49.506;10.400;2023-04-16T08:14:37;13.23;;;10.80;;
9422;SDS011;65863;49.506;10.400;2023-04-16T08:17:21;13.23;;;10.03;;
9422;SDS011;65863;49.506;10.400;2023-04-16T08:20:05;14.27;;;11.23;;
9422;SDS011;65863;49.506;10.400;2023-04-16T08:22:50;13.33;;;10.50;;
9422;SDS011;65863;49.506;10.400;2023-04-16T08:25:36;13.77;;;10.57;;
9422;SDS011;65863;49.506;10.400;2023-04-16T08:28:20;13.57;;;10.60;;
9422;SDS011;65863;49.506;10.400;2023-04-16T08:31:04;12.10;;;10.27;;
9422;SDS011;65863;49.506;10.400;2023-04-16T08:33:48;12.50;;;9.90;;
9422;SDS011;65863;49.506;10.400;2023-04-16T08:36:32;11.37;;;9.67;;
9422;SDS011;65863;49.506;10.400;2023-04-16T08:39:16;11.80;;;8.77;;
9422;SDS011;65863;49.506;10.400;2023-04-16T08:42:01;12.00;;;9.77;;
9422;SDS011;65863;49.506;10.400;2023-04-16T08:44:48;11.57;;;9.50;;
9422;SDS011;65863;49.506;10.400;2023-04-16T08:47:36;12.20;;;9.20;;
9422;SDS011;65863;49.506;10.400;2023-04-16T08:50:22;11.43;;;10.00;;
9422;SDS011;65863;49.506;10.400;2023-04-16T08:53:08;10.43;;;9.17;;
9422;SDS011;65863;49.506;10.400;2023-04-16T08:55:53;11.13;;;8.83;;
9422;SDS011;65863;49.506;10.400;2023-04-16T08:58:41;10.60;;;8.47;;
9422;SDS011;65863;49.506;10.400;2023-04-16T09:01:26;9.80;;;8.47;;
9422;SDS011;65863;49.506;10.400;2023-04-16T09:04:11;11.27;;;8.70;;
9422;SDS011;65863;49.506;10.400;2023-04-16T09:06:57;10.07;;;8.60;;
9422;SDS011;65863;49.506;10.400;2023-04-16T09:09:42;9.67;;;8.03;;
9422;SDS011;65863;49.506;10.400;2023-04-16T09:12:27;9.67;;;8.57;;
9422;SDS011;65863;49.506;10.400;2023-04-16T09:15:12;9.43;;;8.40;;
9422;SDS011;65863;49.506;10.400;2023-04-16T09:17:56;9.47;;;8.33;;
9422;SDS011;65863;49.506;10.400;2023-04-16T09:20:40;9.43;;;8.13;;
9422;SDS011;65863;49.506;10.400;2023-04-16T09:23:25;8.57;;;7.73;;
9422;SDS011;65863;49.506;10.400;2023-04-16T09:26:08;9.63;;;8.10;;
9422;SDS011;65863;49.506;10.400;2023-04-16T09:28:53;11.57;;;9.23;;
9422;SDS011;65863;49.506;10.400;2023-04-16T09:31:37;10.13;;;8.43;;
9422;SDS011;65863;49.506;10.400;2023-04-16T09:34:21;9.63;;;8.30;;
9422;SDS011;65863;49.506;10.400;2023-04-16T09:37:15;8.27;;;7.27;;
9422;SDS011;65863;49.506;10.400;2023-04-16T09:40:02;9.33;;;8.40;;
9422;SDS011;65863;49.506;10.400;2023-04-16T09:42:48;8.60;;;7.53;;
9422;SDS011;65863;49.506;10.400;2023-04-16T09:45:32;8.20;;;7.33;;
9422;SDS011;65863;49.506;10.400;2023-04-16T09:48:31;8.27;;;7.43;;
9422;SDS011;65863;49.506;10.400;2023-04-16T09:51:16;7.67;;;6.97;;
9422;SDS011;65863;49.506;10.400;2023-04-16T09:54:00;7.27;;;6.57;;
9422;SDS011;65863;49.506;10.400;2023-04-16T09:56:47;7.63;;;6.83;;
9422;SDS011;65863;49.506;10.400;2023-04-16T09:59:31;7.60;;;6.80;;
9422;SDS011;65863;49.506;10.400;2023-04-16T10:02:19;9.47;;;7.83;;
9422;SDS011;65863;49.506;10.400;2023-04-16T10:05:03;8.70;;;7.00;;
9422;SDS011;65863;49.506;10.400;2023-04-16T10:07:47;8.30;;;6.57;;
9422;SDS011;65863;49.506;10.400;2023-04-16T10:10:32;7.57;;;6.77;;
9422;SDS011;65863;49.506;10.400;2023-04-16T10:13:16;7.40;;;6.50;;
9422;SDS011;65863;49.506;10.400;2023-04-16T10:16:01;8.00;;;7.20;;
9422;SDS011;65863;49.506;10.400;2023-04-16T10:18:46;6.80;;;5.97;;
9422;SDS011;65863;49.506;10.400;2023-04-16T10:21:30;6.70;;;6.00;;
9422;SDS011;65863;49.506;10.400;2023-04-16T10:24:16;6.27;;;5.67;;
9422;SDS011;65863;49.506;10.400;2023-04-16T10:27:00;7.50;;;6.00;;
9422;SDS011;65863;49.506;10.400;2023-04-16T10:29:45;6.37;;;5.77;;
9422;SDS011;65863;49.506;10.400;2023-04-16T10:32:29;5.87;;;5.23;;
9422;SDS011;65863;49.506;10.400;2023-04-16T10:35:14;6.00;;;5.40;;
9422;SDS011;65863;49.506;10.400;2023-04-16T10:38:20;5.17;;;4.67;;
9422;SDS011;65863;49.506;10.400;2023-04-16T10:41:07;4.90;;;4.47;;
9422;SDS011;65863;49.506;10.400;2023-04-16T10:43:52;5.00;;;4.60;;
9422;SDS011;65863;49.506;10.400;2023-04-16T10:46:48;4.47;;;4.07;;
9422;SDS011;65863;49.506;10.400;2023-04-16T10:49:32;4.20;;;3.80;;
9422;SDS011;65863;49.506;10.400;2023-04-16T10:52:18;5.07;;;4.57;;
9422;SDS011;65863;49.506;10.400;2023-04-16T10:55:02;4.93;;;4.13;;
9422;SDS011;65863;49.506;10.400;2023-04-16T10:57:48;4.70;;;4.30;;
9422;SDS011;65863;49.506;10.400;2023-04-16T11:00:38;3.60;;;3.30;;
9422;SDS011;65863;49.506;10.400;2023-04-16T11:03:32;4.13;;;3.60;;
9422;SDS011;65863;49.506;10.400;2023-04-16T11:06:20;4.00;;;3.70;;
9422;SDS011;65863;49.506;10.400;2023-04-16T11:09:08;3.57;;;3.27;;
9422;SDS011;65863;49.506;10.400;2023-04-16T11:15:17;3.53;;;3.10;;
9422;SDS011;65863;49.506;10.400;2023-04-16T11:18:06;3.20;;;2.90;;
9422;SDS011;65863;49.506;10.400;2023-04-16T11:20:50;3.20;;;2.90;;
9422;SDS011;65863;49.506;10.400;2023-04-16T11:23:44;3.27;;;2.93;;
9422;SDS011;65863;49.506;10.400;2023-04-16T11:26:32;3.47;;;3.00;;
9422;SDS011;65863;49.506;10.400;2023-04-16T11:29:16;2.90;;;2.70;;
9422;SDS011;65863;49.506;10.400;2023-04-16T11:32:00;3.20;;;2.93;;
9422;SDS011;65863;49.506;10.400;2023-04-16T11:34:44;2.90;;;2.70;;
9422;SDS011;65863;49.506;10.400;2023-04-16T11:40:20;3.63;;;3.03;;
9422;SDS011;65863;49.506;10.400;2023-04-16T11:43:14;3.27;;;2.97;;
9422;SDS011;65863;49.506;10.400;2023-04-16T11:46:00;2.63;;;2.43;;
9422;SDS011;65863;49.506;10.400;2023-04-16T11:48:46;2.97;;;2.77;;
9422;SDS011;65863;49.506;10.400;2023-04-16T11:51:40;2.90;;;2.70;;
9422;SDS011;65863;49.506;10.400;2023-04-16T11:54:25;3.20;;;2.93;;
9422;SDS011;65863;49.506;10.400;2023-04-16T11:57:09;2.83;;;2.60;;
9422;SDS011;65863;49.506;10.400;2023-04-16T11:59:54;2.73;;;2.53;;
9422;SDS011;65863;49.506;10.400;2023-04-16T12:02:42;2.93;;;2.63;;
9422;SDS011;65863;49.506;10.400;2023-04-16T12:05:35;3.23;;;2.93;;
9422;SDS011;65863;49.506;10.400;2023-04-16T12:08:27;3.17;;;2.97;;
9422;SDS011;65863;49.506;10.400;2023-04-16T12:11:13;2.93;;;2.73;;
9422;SDS011;65863;49.506;10.400;2023-04-16T12:14:10;3.17;;;2.93;;
9422;SDS011;65863;49.506;10.400;2023-04-16T12:16:55;2.90;;;2.70;;
9422;SDS011;65863;49.506;10.400;2023-04-16T12:20:07;3.10;;;2.90;;
9422;SDS011;65863;49.506;10.400;2023-04-16T12:22:52;3.10;;;2.90;;
9422;SDS011;65863;49.506;10.400;2023-04-16T12:25:41;2.80;;;2.60;;
9422;SDS011;65863;49.506;10.400;2023-04-16T12:28:29;3.20;;;3.00;;
9422;SDS011;65863;49.506;10.400;2023-04-16T12:31:15;3.50;;;3.20;;
9422;SDS011;65863;49.506;10.400;2023-04-16T12:34:02;3.10;;;2.90;;
9422;SDS011;65863;49.506;10.400;2023-04-16T12:36:47;3.20;;;2.90;;
9422;SDS011;65863;49.506;10.400;2023-04-16T12:39:32;2.93;;;2.70;;
9422;SDS011;65863;49.506;10.400;2023-04-16T12:42:16;3.23;;;3.03;;
9422;SDS011;65863;49.506;10.400;2023-04-16T12:45:04;3.07;;;2.87;;
9422;SDS011;65863;49.506;10.400;2023-04-16T12:47:49;3.10;;;2.90;;
9422;SDS011;65863;49.506;10.400;2023-04-16T12:50:33;4.37;;;2.97;;
9422;SDS011;65863;49.506;10.400;2023-04-16T12:53:18;3.00;;;2.70;;
9422;SDS011;65863;49.506;10.400;2023-04-16T12:56:02;3.27;;;3.00;;
9422;SDS011;65863;49.506;10.400;2023-04-16T12:58:47;4.73;;;3.53;;
9422;SDS011;65863;49.506;10.400;2023-04-16T13:01:34;3.10;;;2.90;;
9422;SDS011;65863;49.506;10.400;2023-04-16T13:04:20;3.20;;;2.90;;
9422;SDS011;65863;49.506;10.400;2023-04-16T13:07:04;3.30;;;3.00;;
9422;SDS011;65863;49.506;10.400;2023-04-16T13:09:48;3.60;;;3.03;;
9422;SDS011;65863;49.506;10.400;2023-04-16T13:12:32;2.43;;;2.23;;
9422;SDS011;65863;49.506;10.400;2023-04-16T13:15:16;2.90;;;2.70;;
9422;SDS011;65863;49.506;10.400;2023-04-16T13:18:01;2.87;;;2.67;;
9422;SDS011;65863;49.506;10.400;2023-04-16T13:20:44;3.43;;;3.13;;
9422;SDS011;65863;49.506;10.400;2023-04-16T13:23:28;5.23;;;4.10;;
9422;SDS011;65863;49.506;10.400;2023-04-16T13:26:13;6.40;;;4.43;;
9422;SDS011;65863;49.506;10.400;2023-04-16T13:28:58;4.00;;;3.60;;
9422;SDS011;65863;49.506;10.400;2023-04-16T13:31:43;2.57;;;2.30;;
9422;SDS011;65863;49.506;10.400;2023-04-16T13:34:27;2.53;;;2.10;;
9422;SDS011;65863;49.506;10.400;2023-04-16T13:37:11;1.80;;;1.70;;
9422;SDS011;65863;49.506;10.400;2023-04-16T13:39:55;2.00;;;1.87;;
9422;SDS011;65863;49.506;10.400;2023-04-16T13:42:40;3.03;;;1.83;;
9422;SDS011;65863;49.506;10.400;2023-04-16T13:45:24;2.37;;;2.17;;
9422;SDS011;65863;49.506;10.400;2023-04-16T13:48:10;1.80;;;1.70;;
9422;SDS011;65863;49.506;10.400;2023-04-16T13:50:54;2.17;;;2.07;;
9422;SDS011;65863;49.506;10.400;2023-04-16T13:53:38;2.00;;;1.80;;
9422;SDS011;65863;49.506;10.400;2023-04-16T13:56:23;2.30;;;2.10;;
9422;SDS011;65863;49.506;10.400;2023-04-16T13:59:08;3.40;;;2.37;;
9422;SDS011;65863;49.506;10.400;2023-04-16T14:01:52;3.80;;;3.40;;
9422;SDS011;65863;49.506;10.400;2023-04-16T14:04:36;2.27;;;2.07;;
9422;SDS011;65863;49.506;10.400;2023-04-16T14:07:20;3.60;;;2.50;;
9422;SDS011;65863;49.506;10.400;2023-04-16T14:10:08;2.00;;;1.90;;
9422;SDS011;65863;49.506;10.400;2023-04-16T14:12:52;1.80;;;1.70;;
9422;SDS011;65863;49.506;10.400;2023-04-16T14:15:36;2.70;;;1.80;;
9422;SDS011;65863;49.506;10.400;2023-04-16T14:18:20;1.90;;;1.80;;
9422;SDS011;65863;49.506;10.400;2023-04-16T14:21:04;1.50;;;1.40;;
9422;SDS011;65863;49.506;10.400;2023-04-16T14:23:49;1.60;;;1.50;;
9422;SDS011;65863;49.506;10.400;2023-04-16T14:26:34;1.40;;;1.30;;
9422;SDS011;65863;49.506;10.400;2023-04-16T14:29:18;1.07;;;1.07;;
9422;SDS011;65863;49.506;10.400;2023-04-16T14:32:02;1.20;;;1.20;;
9422;SDS011;65863;49.506;10.400;2023-04-16T14:34:46;1.60;;;1.50;;
9422;SDS011;65863;49.506;10.400;2023-04-16T14:37:30;1.93;;;1.40;;
9422;SDS011;65863;49.506;10.400;2023-04-16T14:40:14;1.30;;;1.30;;
9422;SDS011;65863;49.506;10.400;2023-04-16T14:42:59;1.70;;;1.60;;
9422;SDS011;65863;49.506;10.400;2023-04-16T14:45:43;1.37;;;1.27;;
9422;SDS011;65863;49.506;10.400;2023-04-16T14:48:27;1.47;;;1.37;;
9422;SDS011;65863;49.506;10.400;2023-04-16T14:51:11;1.13;;;1.10;;
9422;SDS011;65863;49.506;10.400;2023-04-16T14:53:55;2.10;;;1.40;;
9422;SDS011;65863;49.506;10.400;2023-04-16T14:56:39;1.50;;;1.40;;
9422;SDS011;65863;49.506;10.400;2023-04-16T14:59:23;2.60;;;1.50;;
9422;SDS011;65863;49.506;10.400;2023-04-16T15:02:08;1.50;;;1.40;;
9422;SDS011;65863;49.506;10.400;2023-04-16T15:04:53;1.77;;;1.67;;
9422;SDS011;65863;49.506;10.400;2023-04-16T15:07:37;2.20;;;2.00;;
9422;SDS011;65863;49.506;10.400;2023-04-16T15:10:21;2.23;;;2.03;;
9422;SDS011;65863;49.506;10.400;2023-04-16T15:13:05;2.27;;;2.07;;
9422;SDS011;65863;49.506;10.400;2023-04-16T15:15:49;2.40;;;2.20;;
9422;SDS011;65863;49.506;10.400;2023-04-16T15:18:33;2.30;;;2.10;;
9422;SDS011;65863;49.506;10.400;2023-04-16T15:21:17;1.90;;;1.80;;
9422;SDS011;65863;49.506;10.400;2023-04-16T15:24:01;1.40;;;1.30;;
9422;SDS011;65863;49.506;10.400;2023-04-16T15:26:45;1.50;;;1.40;;
9422;SDS011;65863;49.506;10.400;2023-04-16T15:29:29;1.23;;;1.20;;
9422;SDS011;65863;49.506;10.400;2023-04-16T15:32:14;1.60;;;1.50;;
9422;SDS011;65863;49.506;10.400;2023-04-16T15:34:58;1.40;;;1.30;;
9422;SDS011;65863;49.506;10.400;2023-04-16T15:37:42;1.20;;;1.20;;
9422;SDS011;65863;49.506;10.400;2023-04-16T15:40:26;1.20;;;1.20;;
9422;SDS011;65863;49.506;10.400;2023-04-16T15:43:10;1.07;;;1.07;;
9422;SDS011;65863;49.506;10.400;2023-04-16T15:45:54;3.40;;;3.10;;
9422;SDS011;65863;49.506;10.400;2023-04-16T15:48:39;2.17;;;2.07;;
9422;SDS011;65863;49.506;10.400;2023-04-16T15:51:23;2.40;;;2.30;;
9422;SDS011;65863;49.506;10.400;2023-04-16T15:54:07;1.93;;;1.83;;
9422;SDS011;65863;49.506;10.400;2023-04-16T15:56:51;1.30;;;1.20;;
9422;SDS011;65863;49.506;10.400;2023-04-16T15:59:35;1.43;;;1.33;;
9422;SDS011;65863;49.506;10.400;2023-04-16T16:02:19;1.63;;;1.30;;
9422;SDS011;65863;49.506;10.400;2023-04-16T16:05:03;1.60;;;1.40;;
9422;SDS011;65863;49.506;10.400;2023-04-16T16:07:48;1.50;;;1.40;;
9422;SDS011;65863;49.506;10.400;2023-04-16T16:10:32;3.33;;;2.60;;
9422;SDS011;65863;49.506;10.400;2023-04-16T16:13:16;4.60;;;3.40;;
9422;SDS011;65863;49.506;10.400;2023-04-16T16:16:01;7.80;;;4.73;;
9422;SDS011;65863;49.506;10.400;2023-04-16T16:18:46;5.63;;;3.77;;
9422;SDS011;65863;49.506;10.400;2023-04-16T16:21:30;5.97;;;3.87;;
9422;SDS011;65863;49.506;10.400;2023-04-16T16:24:15;5.03;;;4.20;;
9422;SDS011;65863;49.506;10.400;2023-04-16T16:27:00;4.37;;;3.90;;
9422;SDS011;65863;49.506;10.400;2023-04-16T16:29:44;5.47;;;4.70;;
9422;SDS011;65863;49.506;10.400;2023-04-16T16:32:29;5.63;;;5.03;;